createdAt,value
2022-10-30T00:00:43.375Z,76.57
2022-10-30T00:03:13.562Z,76.85
2022-10-30T00:05:43.463Z,77.45
2022-10-30T00:08:14.391Z,78.52
2022-10-30T00:10:42.914Z,79.24
2022-10-30T00:13:11.843Z,79.72
2022-10-30T00:15:40.067Z,79.89
2022-10-30T00:18:08.076Z,79.87
2022-10-30T00:20:37.541Z,78.86
2022-10-30T00:23:05.503Z,79.56
2022-10-30T00:25:36.073Z,79.62
2022-10-30T00:28:04.707Z,79.30
2022-10-30T00:30:32.794Z,79.55
2022-10-30T00:33:01.422Z,79.78
2022-10-30T00:35:29.815Z,80.74
2022-10-30T00:37:58.272Z,81.72
2022-10-30T00:40:26.894Z,82.33
2022-10-30T00:42:56.341Z,83.33
2022-10-30T00:45:24.375Z,83.34
2022-10-30T00:47:55.849Z,83.71
2022-10-30T00:53:04.744Z,83.66
2022-10-30T00:55:35.660Z,83.45
2022-10-30T00:58:08.329Z,83.25
2022-10-30T01:00:38.253Z,83.54
2022-10-30T01:03:07.186Z,83.90
2022-10-30T01:05:36.065Z,83.94
2022-10-30T01:08:04.201Z,84.68
2022-10-30T01:10:32.479Z,84.31
2022-10-30T01:13:01.599Z,84.49
2022-10-30T01:15:35.864Z,84.49
2022-10-30T01:18:26.277Z,84.76
2022-10-30T01:21:13.209Z,84.92
2022-10-30T01:23:53.278Z,85.02
2022-10-30T01:26:33.659Z,84.71
2022-10-30T01:29:13.878Z,85.12
2022-10-30T01:31:57.249Z,85.01
2022-10-30T01:34:34.815Z,84.95
2022-10-30T01:37:07.300Z,85.54
2022-10-30T01:39:38.524Z,85.72
2022-10-30T01:42:28.092Z,85.76
2022-10-30T01:44:56.113Z,86.63
2022-10-30T01:47:38.944Z,87.17
2022-10-30T01:50:18.044Z,87.18
2022-10-30T01:52:57.103Z,87.54
2022-10-30T01:55:37.211Z,87.62
2022-10-30T01:58:12.978Z,87.09
2022-10-30T02:00:43.526Z,86.86
2022-10-30T02:03:13.459Z,87.70
2022-10-30T02:05:48.422Z,87.99
2022-10-30T02:08:16.509Z,88.35
2022-10-30T02:10:47.107Z,88.21
2022-10-30T02:13:15.633Z,88.76
2022-10-30T02:15:45.378Z,88.91
2022-10-30T02:18:14.788Z,89.80
2022-10-30T02:20:44.139Z,90.13
2022-10-30T02:23:16.843Z,89.71
2022-10-30T02:25:44.861Z,89.69
2022-10-30T02:28:12.995Z,89.69
2022-10-30T02:30:44.171Z,89.73
2022-10-30T02:33:12.822Z,89.40
2022-10-30T02:35:40.887Z,89.13
2022-10-30T02:38:10.387Z,88.95
2022-10-30T02:40:38.419Z,89.10
2022-10-30T02:43:06.417Z,89.32
2022-10-30T02:45:34.583Z,89.46
2022-10-30T02:48:03.038Z,90.13
2022-10-30T02:50:31.522Z,90.58
2022-10-30T02:53:00.830Z,90.51
2022-10-30T02:55:30.769Z,90.54
2022-10-30T02:57:58.774Z,91.10
2022-10-30T03:00:26.821Z,91.33
2022-10-30T03:02:56.978Z,91.96
2022-10-30T03:05:25.839Z,92.40
2022-10-30T03:07:56.178Z,92.37
2022-10-30T03:10:24.568Z,92.77
2022-10-30T03:12:53.979Z,92.58
2022-10-30T03:15:22.325Z,92.72
2022-10-30T03:17:52.516Z,93.06
2022-10-30T03:20:20.826Z,93.73
2022-10-30T03:22:48.824Z,93.92
2022-10-30T03:25:17.673Z,93.75
2022-10-30T03:27:45.707Z,93.61
2022-10-30T03:30:15.248Z,93.58
2022-10-30T03:32:43.466Z,93.39
2022-10-30T03:35:11.451Z,93.07
2022-10-30T03:37:39.545Z,93.43
2022-10-30T03:40:08.831Z,94.13
2022-10-30T03:42:43.483Z,95.32
2022-10-30T03:45:12.047Z,95.96
2022-10-30T03:47:42.488Z,96.42
2022-10-30T03:50:10.855Z,96.11
2022-10-30T03:52:39.191Z,96.05
2022-10-30T03:55:08.294Z,96.60
2022-10-30T03:57:38.364Z,97.27
2022-10-30T04:00:10.399Z,97.01
2022-10-30T04:02:38.341Z,96.58
2022-10-30T04:05:08.359Z,96.48
2022-10-30T04:07:36.403Z,96.99
2022-10-30T04:10:05.111Z,97.03
2022-10-30T04:12:33.094Z,96.79
2022-10-30T04:15:01.099Z,96.21
2022-10-30T04:17:29.349Z,96.33
2022-10-30T04:19:57.350Z,96.17
2022-10-30T04:22:27.266Z,96.00
2022-10-30T04:24:55.253Z,96.37
2022-10-30T04:27:23.231Z,95.97
2022-10-30T04:29:51.279Z,96.58
2022-10-30T04:32:19.419Z,96.60
2022-10-30T04:34:47.433Z,96.85
2022-10-30T04:37:15.525Z,97.16
2022-10-30T04:39:48.763Z,97.03
2022-10-30T04:42:16.703Z,97.16
2022-10-30T04:44:44.654Z,98.31
2022-10-30T04:47:12.956Z,98.29
2022-10-30T04:49:40.956Z,98.57
2022-10-30T04:52:09.586Z,99.18
2022-10-30T04:54:37.549Z,98.67
2022-10-30T04:57:07.142Z,98.29
2022-10-30T04:59:35.172Z,97.77
2022-10-30T05:02:03.520Z,97.99
2022-10-30T05:04:31.559Z,98.00
2022-10-30T05:06:59.593Z,97.79
2022-10-30T05:09:27.596Z,98.12
2022-10-30T05:11:59.978Z,98.56
2022-10-30T05:14:31.343Z,98.71
2022-10-30T05:16:59.715Z,98.26
2022-10-30T05:19:27.798Z,98.26
2022-10-30T05:21:56.808Z,98.21
2022-10-30T05:24:24.910Z,98.58
2022-10-30T05:26:52.920Z,98.56
2022-10-30T05:29:20.900Z,97.99
2022-10-30T05:31:50.309Z,97.21
2022-10-30T05:34:18.319Z,95.98
2022-10-30T05:36:46.857Z,95.37
2022-10-30T05:39:14.824Z,94.98
2022-10-30T05:41:42.840Z,95.29
2022-10-30T05:44:10.839Z,95.23
2022-10-30T05:46:38.858Z,95.47
2022-10-30T05:49:08.431Z,94.83
2022-10-30T05:51:39.584Z,94.87
2022-10-30T05:54:08.925Z,94.74
2022-10-30T05:56:37.008Z,94.65
2022-10-30T05:59:04.989Z,94.84
2022-10-30T06:01:33.043Z,94.77
2022-10-30T06:04:01.286Z,94.52
2022-10-30T06:06:30.731Z,94.00
2022-10-30T06:08:58.963Z,93.54
2022-10-30T06:11:27.550Z,92.70
2022-10-30T06:13:55.527Z,92.11
2022-10-30T06:16:23.564Z,91.26
2022-10-30T06:18:51.621Z,90.49
2022-10-30T06:21:19.613Z,89.64
2022-10-30T06:23:49.362Z,89.54
2022-10-30T06:26:17.365Z,88.63
2022-10-30T06:28:45.330Z,82.51
2022-10-30T06:31:13.402Z,82.11
2022-10-30T06:33:41.899Z,81.98
2022-10-30T06:36:10.032Z,82.34
2022-10-30T06:38:38.050Z,82.61
2022-10-30T06:41:07.614Z,82.33
2022-10-30T06:43:35.926Z,81.80
2022-10-30T06:46:04.139Z,81.14
2022-10-30T06:48:32.228Z,81.36
2022-10-30T06:51:03.018Z,81.18
2022-10-30T06:53:31.302Z,80.64
2022-10-30T06:56:01.327Z,80.07
2022-10-30T06:58:31.382Z,79.78
2022-10-30T07:01:01.342Z,79.58
2022-10-30T07:03:29.337Z,78.73
2022-10-30T07:05:57.443Z,77.36
2022-10-30T07:08:25.850Z,76.80
2022-10-30T07:10:53.946Z,76.37
2022-10-30T07:13:22.069Z,74.75
2022-10-30T07:15:51.846Z,73.93
2022-10-30T07:18:20.054Z,72.85
2022-10-30T07:20:48.203Z,72.45
2022-10-30T07:23:16.214Z,72.38
2022-10-30T07:25:44.182Z,70.75
2022-10-30T07:28:12.252Z,70.77
2022-10-30T07:30:40.383Z,70.87
2022-10-30T07:33:11.749Z,70.59
2022-10-30T07:35:39.827Z,70.20
2022-10-30T07:38:09.419Z,70.08
2022-10-30T07:40:37.563Z,68.80
2022-10-30T07:43:06.491Z,68.85
2022-10-30T07:45:34.766Z,67.33
2022-10-30T07:48:03.072Z,67.44
2022-10-30T07:50:33.897Z,67.25
2022-10-30T07:53:02.173Z,66.34
2022-10-30T07:55:30.260Z,64.97
2022-10-30T07:57:58.626Z,65.56
2022-10-30T08:00:27.588Z,66.03
2022-10-30T08:02:58.960Z,64.36
2022-10-30T08:05:29.986Z,65.28
2022-10-30T08:08:00.132Z,64.74
2022-10-30T08:10:28.605Z,64.57
2022-10-30T08:12:56.634Z,64.51
2022-10-30T08:15:25.099Z,64.07
2022-10-30T08:17:54.126Z,64.08
2022-10-30T08:20:23.605Z,62.27
2022-10-30T08:22:53.142Z,63.17
2022-10-30T08:25:24.680Z,62.37
2022-10-30T08:27:55.086Z,61.89
2022-10-30T08:30:23.878Z,61.82
2022-10-30T08:32:52.131Z,61.17
2022-10-30T08:35:20.467Z,59.78
2022-10-30T08:37:48.833Z,60.03
2022-10-30T08:40:17.106Z,60.25
2022-10-30T08:42:51.794Z,59.60
2022-10-30T08:45:20.607Z,59.34
2022-10-30T08:47:49.031Z,59.33
2022-10-30T08:50:17.619Z,58.10
2022-10-30T08:52:48.329Z,57.60
2022-10-30T08:55:19.018Z,56.20
2022-10-30T08:57:49.666Z,55.61
2022-10-30T09:00:18.194Z,55.79
2022-10-30T09:02:46.499Z,55.70
2022-10-30T09:05:14.630Z,54.84
2022-10-30T09:07:42.730Z,55.23
2022-10-30T09:10:10.927Z,54.88
2022-10-30T09:12:39.010Z,55.48
2022-10-30T09:15:09.754Z,56.33
2022-10-30T09:17:37.787Z,54.92
2022-10-30T09:20:06.894Z,53.63
2022-10-30T09:22:34.907Z,52.70
2022-10-30T09:25:02.921Z,52.48
2022-10-30T09:27:30.971Z,51.20
2022-10-30T09:29:59.085Z,49.36
2022-10-30T09:32:28.842Z,48.53
2022-10-30T09:34:56.866Z,49.26
2022-10-30T09:37:25.076Z,50.04
2022-10-30T09:39:53.351Z,50.27
2022-10-30T09:42:48.503Z,49.41
2022-10-30T09:45:43.443Z,49.29
2022-10-30T09:48:35.407Z,48.16
2022-10-30T09:51:14.565Z,45.43
2022-10-30T09:53:55.730Z,45.13
2022-10-30T09:56:28.689Z,44.24
2022-10-30T09:59:09.894Z,43.16
2022-10-30T10:01:49.121Z,42.90
2022-10-30T10:04:27.393Z,42.95
2022-10-30T10:07:02.598Z,42.25
2022-10-30T10:09:34.659Z,41.70
2022-10-30T10:12:08.038Z,41.56
2022-10-30T10:14:42.203Z,41.59
2022-10-30T10:17:14.710Z,40.67
2022-10-30T10:19:51.287Z,39.58
2022-10-30T10:22:23.433Z,39.03
2022-10-30T10:24:52.488Z,38.95
2022-10-30T10:27:33.236Z,39.04
2022-10-30T10:30:05.363Z,38.87
2022-10-30T10:32:52.354Z,38.79
2022-10-30T10:35:36.802Z,37.88
2022-10-30T10:38:14.307Z,38.17
2022-10-30T10:40:55.424Z,37.09
2022-10-30T10:43:35.998Z,37.54
2022-10-30T10:46:28.047Z,37.27
2022-10-30T10:49:12.071Z,37.43
2022-10-30T10:51:45.262Z,36.88
2022-10-30T10:54:18.244Z,36.58
2022-10-30T10:56:50.727Z,36.27
2022-10-30T10:59:22.488Z,35.50
2022-10-30T11:01:57.148Z,35.58
2022-10-30T11:04:32.691Z,36.56
2022-10-30T11:07:13.062Z,36.56
2022-10-30T11:09:42.527Z,35.68
2022-10-30T11:12:10.712Z,35.13
2022-10-30T11:14:39.133Z,36.07
2022-10-30T11:17:17.686Z,36.33
2022-10-30T11:19:47.939Z,36.29
2022-10-30T11:22:25.480Z,36.25
2022-10-30T11:24:53.507Z,35.77
2022-10-30T11:27:30.765Z,35.78
2022-10-30T11:30:01.690Z,35.07
2022-10-30T11:32:31.766Z,35.18
2022-10-30T11:35:04.667Z,35.11
2022-10-30T11:37:35.729Z,34.72
2022-10-30T11:40:07.787Z,33.63
2022-10-30T11:42:36.620Z,33.06
2022-10-30T11:45:07.186Z,34.44
2022-10-30T11:47:37.356Z,34.96
2022-10-30T11:50:07.557Z,34.99
2022-10-30T11:52:42.513Z,34.16
2022-10-30T11:55:16.635Z,33.15
2022-10-30T11:57:47.934Z,33.16
2022-10-30T12:00:19.866Z,32.95
2022-10-30T12:02:51.658Z,33.44
2022-10-30T12:05:37.486Z,31.28
2022-10-30T12:08:31.218Z,30.96
2022-10-30T12:11:02.587Z,31.20
2022-10-30T12:13:38.665Z,31.27
2022-10-30T12:16:10.882Z,31.32
2022-10-30T12:18:39.022Z,31.15
2022-10-30T12:21:07.593Z,31.12
2022-10-30T12:23:37.128Z,30.78
2022-10-30T12:26:11.130Z,30.69
2022-10-30T12:28:40.221Z,30.89
2022-10-30T12:31:22.262Z,30.86
2022-10-30T12:33:56.800Z,30.13
2022-10-30T12:36:28.395Z,30.50
2022-10-30T12:39:04.909Z,30.21
2022-10-30T12:41:37.342Z,30.49
2022-10-30T12:44:13.986Z,29.84
2022-10-30T12:46:48.898Z,29.87
2022-10-30T12:49:23.297Z,30.01
2022-10-30T12:51:56.583Z,30.65
2022-10-30T12:54:33.517Z,30.74
2022-10-30T12:57:09.064Z,31.08
2022-10-30T12:59:46.450Z,30.53
2022-10-30T13:02:26.097Z,29.62
2022-10-30T13:04:59.897Z,29.81
2022-10-30T13:07:32.862Z,29.87
2022-10-30T13:10:14.531Z,30.20
2022-10-30T13:12:47.416Z,30.82
2022-10-30T13:15:22.436Z,31.40
2022-10-30T13:17:51.853Z,31.52
2022-10-30T13:20:21.208Z,31.14
2022-10-30T13:22:56.799Z,30.83
2022-10-30T13:25:37.362Z,30.92
2022-10-30T13:28:14.091Z,31.14
2022-10-30T13:30:48.575Z,31.18
2022-10-30T13:33:23.306Z,31.61
2022-10-30T13:35:58.922Z,32.06
2022-10-30T13:38:41.458Z,31.44
2022-10-30T13:41:19.813Z,31.19
2022-10-30T13:43:56.820Z,31.70
2022-10-30T13:46:50.059Z,32.34
2022-10-30T13:49:34.037Z,32.43
2022-10-30T13:52:08.986Z,32.20
2022-10-30T13:54:40.821Z,32.43
2022-10-30T13:57:20.731Z,33.23
2022-10-30T14:00:04.234Z,33.58
2022-10-30T14:02:50.026Z,33.42
2022-10-30T14:05:36.357Z,33.42
2022-10-30T14:08:15.479Z,33.80
2022-10-30T14:10:49.258Z,34.24
2022-10-30T14:13:27.091Z,34.42
2022-10-30T14:16:02.123Z,34.62
2022-10-30T14:19:00.701Z,34.89
2022-10-30T14:21:46.182Z,35.03
2022-10-30T14:24:20.015Z,35.24
2022-10-30T14:26:54.173Z,35.38
2022-10-30T14:29:49.610Z,35.60
2022-10-30T14:32:49.069Z,35.85
2022-10-30T14:35:41.867Z,36.00
2022-10-30T14:38:28.581Z,36.24
2022-10-30T14:41:32.077Z,36.51
2022-10-30T14:44:36.268Z,36.46
2022-10-30T14:47:23.943Z,36.37
2022-10-30T14:49:58.844Z,36.52
2022-10-30T14:52:38.166Z,36.76
2022-10-30T14:55:24.644Z,36.32
2022-10-30T14:57:54.767Z,35.67
2022-10-30T15:00:31.656Z,35.07
2022-10-30T15:03:07.280Z,35.18
2022-10-30T15:05:49.062Z,34.78
2022-10-30T15:08:32.450Z,35.14
2022-10-30T15:11:20.766Z,35.16
2022-10-30T15:13:52.413Z,35.25
2022-10-30T15:16:23.140Z,35.34
2022-10-30T15:18:59.660Z,35.74
2022-10-30T15:21:34.397Z,36.50
2022-10-30T15:24:04.080Z,37.25
2022-10-30T15:26:37.226Z,37.43
2022-10-30T15:29:06.886Z,38.33
2022-10-30T15:31:34.964Z,38.81
2022-10-30T15:34:03.152Z,39.20
2022-10-30T15:36:43.053Z,38.98
2022-10-30T15:39:13.815Z,38.81
2022-10-30T15:41:44.997Z,38.74
2022-10-30T15:46:51.645Z,39.96
2022-10-30T15:49:28.652Z,40.46
2022-10-30T15:51:58.704Z,41.03
2022-10-30T15:54:28.504Z,40.61
2022-10-30T15:57:36.616Z,40.27
2022-10-30T15:59:53.519Z,40.32
2022-10-30T16:02:23.659Z,40.43
2022-10-30T16:04:52.149Z,40.71
2022-10-30T16:07:23.978Z,41.47
2022-10-30T16:09:56.762Z,41.80
2022-10-30T16:12:30.014Z,42.06
2022-10-30T16:14:58.948Z,42.24
2022-10-30T16:17:28.432Z,42.25
2022-10-30T16:20:02.480Z,42.17
2022-10-30T16:22:37.609Z,42.53
2022-10-30T16:25:09.655Z,42.91
2022-10-30T16:27:45.456Z,43.38
2022-10-30T16:30:15.716Z,43.77
2022-10-30T16:32:47.401Z,43.77
2022-10-30T16:35:16.100Z,43.32
2022-10-30T16:37:46.194Z,42.62
2022-10-30T16:40:17.419Z,42.13
2022-10-30T16:42:49.709Z,42.42
2022-10-30T16:45:53.249Z,42.65
2022-10-30T16:48:28.137Z,42.91
2022-10-30T16:51:04.573Z,42.73
2022-10-30T16:53:34.366Z,42.89
2022-10-30T16:56:02.879Z,43.21
2022-10-30T16:58:32.523Z,43.13
2022-10-30T17:01:06.987Z,43.83
2022-10-30T17:03:39.113Z,44.87
2022-10-30T17:06:26.139Z,45.38
2022-10-30T17:09:00.757Z,45.85
2022-10-30T17:11:42.078Z,46.23
2022-10-30T17:14:20.920Z,46.81
2022-10-30T17:16:56.974Z,46.87
2022-10-30T17:19:49.637Z,46.96
2022-10-30T17:22:21.585Z,47.00
2022-10-30T17:24:50.973Z,47.53
2022-10-30T17:27:46.901Z,46.44
2022-10-30T17:30:34.780Z,45.90
2022-10-30T17:33:03.999Z,45.33
2022-10-30T17:35:32.162Z,45.27
2022-10-30T17:38:02.941Z,45.86
2022-10-30T17:40:32.859Z,46.49
2022-10-30T17:43:00.974Z,46.24
2022-10-30T17:45:29.102Z,46.14
2022-10-30T17:47:57.892Z,45.97
2022-10-30T17:50:26.215Z,45.52
2022-10-30T17:52:54.305Z,44.84
2022-10-30T17:55:30.942Z,44.94
2022-10-30T17:58:00.515Z,44.91
2022-10-30T18:00:28.594Z,45.04
2022-10-30T18:02:57.203Z,45.05
2022-10-30T18:05:30.011Z,45.58
2022-10-30T18:07:58.040Z,45.43
2022-10-30T18:10:26.207Z,45.22
2022-10-30T18:12:54.268Z,45.40
2022-10-30T18:15:36.765Z,45.88
2022-10-30T18:18:23.461Z,46.28
2022-10-30T18:20:51.850Z,46.40
2022-10-30T18:26:14.930Z,46.93
2022-10-30T18:28:43.038Z,47.38
2022-10-30T18:31:13.889Z,46.83
2022-10-30T18:33:42.362Z,46.83
2022-10-30T18:36:13.686Z,47.22
2022-10-30T18:38:41.794Z,47.52
2022-10-30T18:41:15.386Z,47.87
2022-10-30T18:43:46.661Z,47.52
2022-10-30T18:46:17.417Z,47.57
2022-10-30T18:48:45.850Z,47.47
2022-10-30T18:51:17.755Z,47.64
2022-10-30T18:53:51.764Z,47.16
2022-10-30T18:56:20.619Z,47.17
2022-10-30T18:58:48.805Z,47.24
2022-10-30T19:01:19.344Z,47.71
2022-10-30T19:03:47.948Z,47.80
2022-10-30T19:06:18.555Z,48.48
2022-10-30T19:08:47.043Z,49.17
2022-10-30T19:11:20.201Z,49.49
2022-10-30T19:13:52.467Z,50.34
2022-10-30T19:16:24.583Z,50.68
2022-10-30T19:18:52.748Z,50.88
2022-10-30T19:21:23.501Z,51.21
2022-10-30T19:23:51.851Z,51.53
2022-10-30T19:26:19.875Z,51.46
2022-10-30T19:28:47.936Z,51.44
2022-10-30T19:31:18.332Z,51.64
2022-10-30T19:33:53.047Z,51.69
2022-10-30T19:36:31.405Z,51.70
2022-10-30T19:39:04.456Z,51.85
2022-10-30T19:41:37.108Z,52.14
2022-10-30T19:44:05.992Z,52.21
2022-10-30T19:46:34.168Z,52.36
2022-10-30T19:49:14.447Z,52.26
2022-10-30T19:51:42.453Z,53.30
2022-10-30T19:54:10.484Z,53.83
2022-10-30T19:56:38.577Z,53.61
2022-10-30T19:59:11.344Z,53.63
2022-10-30T20:01:41.621Z,53.47
2022-10-30T20:04:11.695Z,54.53
2022-10-30T20:06:39.832Z,55.10
2022-10-30T20:09:11.046Z,55.21
2022-10-30T20:11:39.062Z,55.39
2022-10-30T20:14:07.835Z,56.23
2022-10-30T20:16:36.080Z,56.47
2022-10-30T20:19:12.047Z,57.33
2022-10-30T20:21:41.442Z,57.14
2022-10-30T20:24:10.042Z,57.31
2022-10-30T20:26:38.453Z,57.47
2022-10-30T20:29:06.639Z,57.85
2022-10-30T20:31:34.726Z,57.77
2022-10-30T20:34:02.931Z,57.82
2022-10-30T20:36:31.128Z,57.98
2022-10-30T20:39:00.553Z,57.81
2022-10-30T20:41:31.111Z,58.15
2022-10-30T20:43:59.141Z,59.61
2022-10-30T20:46:27.654Z,59.49
2022-10-30T20:48:56.556Z,59.71
2022-10-30T20:51:24.923Z,59.83
2022-10-30T20:53:53.299Z,59.23
2022-10-30T20:56:22.701Z,59.83
2022-10-30T20:58:51.594Z,60.40
2022-10-30T21:01:19.622Z,60.62
2022-10-30T21:03:48.067Z,60.60
2022-10-30T21:06:16.167Z,60.64
2022-10-30T21:08:44.145Z,60.46
2022-10-30T21:11:12.348Z,60.77
2022-10-30T21:13:41.794Z,61.66
2022-10-30T21:16:11.022Z,62.08
2022-10-30T21:18:39.062Z,61.81
2022-10-30T21:21:08.853Z,61.67
2022-10-30T21:23:36.950Z,61.91
2022-10-30T21:26:09.852Z,62.01
2022-10-30T21:28:37.944Z,62.59
2022-10-30T21:31:09.378Z,62.55
2022-10-30T21:33:38.701Z,62.58
2022-10-30T21:36:12.007Z,62.40
2022-10-30T21:38:43.048Z,62.38
2022-10-30T21:41:12.297Z,61.83
2022-10-30T21:43:40.481Z,60.71
2022-10-30T21:46:12.474Z,60.37
2022-10-30T21:48:40.696Z,59.90
2022-10-30T21:51:10.814Z,60.55
2022-10-30T21:53:39.248Z,60.26
2022-10-30T21:56:09.171Z,60.21
2022-10-30T21:58:37.168Z,59.84
2022-10-30T22:01:06.605Z,60.18
2022-10-30T22:03:36.114Z,60.52
2022-10-30T22:06:23.547Z,60.69
2022-10-30T22:08:54.365Z,60.62
2022-10-30T22:11:23.865Z,60.95
2022-10-30T22:13:55.551Z,61.20
2022-10-30T22:16:24.749Z,61.20
2022-10-30T22:18:54.246Z,61.20
2022-10-30T22:21:22.281Z,61.56
2022-10-30T22:23:50.331Z,61.21
2022-10-30T22:26:20.267Z,60.91
2022-10-30T22:28:48.943Z,60.91
2022-10-30T22:31:18.680Z,61.23
2022-10-30T22:33:46.941Z,61.54
2022-10-30T22:36:17.651Z,61.17
2022-10-30T22:38:46.272Z,61.35
2022-10-30T22:41:16.095Z,60.93
2022-10-30T22:43:45.575Z,60.63
2022-10-30T22:46:14.772Z,60.84
2022-10-30T22:48:43.193Z,60.87
2022-10-30T22:51:15.558Z,60.82
2022-10-30T22:53:47.213Z,60.25
2022-10-30T22:56:17.809Z,59.98
2022-10-30T22:58:46.528Z,59.62
2022-10-30T23:01:16.624Z,60.01
2022-10-30T23:03:45.498Z,60.56
2022-10-30T23:06:14.484Z,61.36
2022-10-30T23:08:42.493Z,61.55
2022-10-30T23:11:12.331Z,61.65
2022-10-30T23:13:41.585Z,61.69
2022-10-30T23:16:14.512Z,61.30
2022-10-30T23:18:43.903Z,61.68
2022-10-30T23:21:14.084Z,62.31
2022-10-30T23:23:43.877Z,62.51
2022-10-30T23:26:15.706Z,62.50
2022-10-30T23:28:44.679Z,62.68
2022-10-30T23:31:19.561Z,62.63
2022-10-30T23:33:48.674Z,63.13
2022-10-30T23:36:17.698Z,63.67
2022-10-30T23:38:45.996Z,64.01
2022-10-30T23:41:15.601Z,63.48
2022-10-30T23:43:43.600Z,63.13
2022-10-30T23:46:11.680Z,63.01
2022-10-30T23:48:39.744Z,62.53
2022-10-30T23:51:08.990Z,62.63
2022-10-30T23:53:37.114Z,62.95
2022-10-30T23:56:06.260Z,62.33
2022-10-30T23:58:35.707Z,61.31
